createdAt,value
2018-10-11T00:01:52.150Z,73.90
2018-10-11T00:04:20.669Z,73.90
2018-10-11T00:06:49.274Z,73.90
2018-10-11T00:09:17.773Z,73.90
2018-10-11T00:11:46.277Z,74.00
2018-10-11T00:14:14.838Z,74.00
2018-10-11T00:16:43.353Z,74.00
2018-10-11T00:19:11.886Z,73.90
2018-10-11T00:21:40.403Z,73.90
2018-10-11T00:24:09.163Z,74.00
2018-10-11T00:26:38.082Z,74.00
2018-10-11T00:29:06.817Z,74.00
2018-10-11T00:31:35.486Z,74.00
2018-10-11T00:34:04.046Z,74.00
2018-10-11T00:36:32.570Z,74.10
2018-10-11T00:39:01.109Z,74.00
2018-10-11T00:41:29.638Z,74.00
2018-10-11T00:43:58.165Z,74.10
2018-10-11T00:46:26.665Z,74.20
2018-10-11T00:48:55.190Z,74.10
2018-10-11T00:51:23.726Z,74.20
2018-10-11T00:53:52.260Z,74.20
2018-10-11T00:56:20.818Z,74.30
2018-10-11T00:58:49.344Z,74.30
2018-10-11T01:01:17.863Z,74.30
2018-10-11T01:03:46.388Z,74.30
2018-10-11T01:06:14.982Z,74.40
2018-10-11T01:08:43.498Z,74.40
2018-10-11T01:11:12.019Z,74.50
2018-10-11T01:13:41.066Z,74.50
2018-10-11T01:16:09.550Z,74.50
2018-10-11T01:18:38.101Z,74.60
2018-10-11T01:21:07.033Z,74.60
2018-10-11T01:23:35.769Z,74.50
2018-10-11T01:26:04.364Z,74.50
2018-10-11T01:28:32.960Z,74.40
2018-10-11T01:31:06.925Z,74.60
2018-10-11T01:33:35.452Z,74.50
2018-10-11T01:36:04.027Z,74.50
2018-10-11T01:38:32.546Z,74.50
2018-10-11T01:41:01.146Z,74.00
2018-10-11T01:43:29.736Z,74.50
2018-10-11T01:45:58.503Z,74.60
2018-10-11T01:48:28.122Z,74.50
2018-10-11T01:50:56.805Z,74.60
2018-10-11T01:53:25.496Z,75.40
2018-10-11T01:55:54.026Z,74.70
2018-10-11T01:58:22.571Z,74.80
2018-10-11T02:00:51.122Z,74.80
2018-10-11T02:03:20.486Z,74.80
2018-10-11T02:05:48.972Z,74.70
2018-10-11T02:08:17.533Z,74.80
2018-10-11T02:10:46.045Z,74.80
2018-10-11T02:13:14.691Z,74.80
2018-10-11T02:15:43.203Z,74.80
2018-10-11T02:18:11.827Z,74.90
2018-10-11T02:20:40.298Z,74.70
2018-10-11T02:23:08.842Z,74.80
2018-10-11T02:25:38.047Z,74.90
2018-10-11T02:28:07.460Z,74.80
2018-10-11T02:30:36.120Z,74.90
2018-10-11T02:33:04.824Z,74.80
2018-10-11T02:35:33.307Z,74.90
2018-10-11T02:38:01.931Z,75.00
2018-10-11T02:40:30.380Z,75.80
2018-10-11T02:42:59.062Z,75.00
2018-10-11T02:45:27.681Z,75.00
2018-10-11T02:47:56.257Z,75.00
2018-10-11T02:50:24.772Z,75.10
2018-10-11T02:52:53.302Z,75.10
2018-10-11T02:55:26.050Z,75.10
2018-10-11T02:58:05.865Z,75.10
2018-10-11T03:00:35.175Z,75.10
2018-10-11T03:03:11.505Z,75.10
2018-10-11T03:05:42.720Z,75.10
2018-10-11T03:08:15.535Z,75.10
2018-10-11T03:10:46.254Z,75.10
2018-10-11T03:13:15.093Z,75.00
2018-10-11T03:15:44.147Z,75.50
2018-10-11T03:18:13.411Z,75.00
2018-10-11T03:20:42.881Z,75.00
2018-10-11T03:23:12.104Z,74.90
2018-10-11T03:25:41.421Z,74.90
2018-10-11T03:28:10.361Z,74.70
2018-10-11T03:30:39.243Z,74.70
2018-10-11T03:33:07.860Z,75.50
2018-10-11T03:35:36.358Z,74.60
2018-10-11T03:38:04.983Z,74.60
2018-10-11T03:40:33.489Z,74.60
2018-10-11T03:43:02.043Z,74.50
2018-10-11T03:45:30.571Z,74.50
2018-10-11T03:47:59.311Z,74.80
2018-10-11T03:50:28.291Z,74.80
2018-10-11T03:52:57.915Z,75.10
2018-10-11T03:55:26.765Z,75.10
2018-10-11T03:57:55.321Z,75.20
2018-10-11T04:00:24.124Z,75.40
2018-10-11T04:02:52.640Z,75.50
2018-10-11T04:05:21.202Z,75.50
2018-10-11T04:07:49.704Z,75.40
2018-10-11T04:10:18.223Z,75.40
2018-10-11T04:12:46.889Z,76.10
2018-10-11T04:15:15.418Z,76.20
2018-10-11T04:17:43.990Z,75.50
2018-10-11T04:20:12.572Z,75.60
2018-10-11T04:22:41.108Z,75.50
2018-10-11T04:25:09.613Z,75.50
2018-10-11T04:27:38.140Z,75.60
2018-10-11T04:30:06.830Z,75.70
2018-10-11T04:32:35.530Z,75.20
2018-10-11T04:35:04.053Z,75.80
2018-10-11T04:37:32.688Z,75.80
2018-10-11T04:40:01.212Z,75.70
2018-10-11T04:42:29.778Z,75.80
2018-10-11T04:44:58.344Z,75.90
2018-10-11T04:47:26.889Z,75.90
2018-10-11T04:49:55.579Z,75.90
2018-10-11T04:52:24.100Z,75.80
2018-10-11T04:54:52.641Z,75.90
2018-10-11T04:57:21.236Z,75.90
2018-10-11T04:59:49.941Z,75.90
2018-10-11T05:02:18.318Z,75.90
2018-10-11T05:04:46.887Z,75.90
2018-10-11T05:07:15.326Z,75.90
2018-10-11T05:09:43.839Z,76.60
2018-10-11T05:12:12.344Z,75.80
2018-10-11T05:14:41.015Z,76.00
2018-10-11T05:17:09.614Z,75.90
2018-10-11T05:19:39.193Z,76.00
2018-10-11T05:22:07.689Z,76.00
2018-10-11T05:24:36.204Z,75.90
2018-10-11T05:27:04.810Z,76.00
2018-10-11T05:29:33.384Z,75.90
2018-10-11T05:32:03.414Z,75.90
2018-10-11T05:34:32.186Z,75.90
2018-10-11T05:37:00.643Z,75.90
2018-10-11T05:39:29.233Z,75.90
2018-10-11T05:41:57.796Z,75.90
2018-10-11T05:44:26.447Z,75.80
2018-10-11T05:46:54.972Z,75.90
2018-10-11T05:49:23.553Z,75.90
2018-10-11T05:51:52.109Z,75.90
2018-10-11T05:54:20.752Z,75.90
2018-10-11T05:56:49.899Z,75.90
2018-10-11T05:59:18.415Z,75.90
2018-10-11T06:01:46.977Z,75.90
2018-10-11T06:04:15.567Z,75.90
2018-10-11T06:06:46.499Z,75.90
2018-10-11T06:09:15.024Z,75.90
2018-10-11T06:11:43.744Z,75.90
2018-10-11T06:14:12.836Z,75.90
2018-10-11T06:16:41.387Z,75.90
2018-10-11T06:19:09.931Z,75.90
2018-10-11T06:21:38.486Z,75.90
2018-10-11T06:24:07.045Z,76.00
2018-10-11T06:26:35.651Z,75.90
2018-10-11T06:29:04.191Z,76.00
2018-10-11T06:31:32.928Z,76.00
2018-10-11T06:34:01.749Z,76.00
2018-10-11T06:36:30.406Z,76.00
2018-10-11T06:38:59.679Z,76.00
2018-10-11T06:41:28.267Z,75.90
2018-10-11T06:43:57.138Z,75.90
2018-10-11T06:46:25.680Z,76.00
2018-10-11T06:48:54.245Z,76.80
2018-10-11T06:51:26.046Z,75.90
2018-10-11T06:53:54.648Z,76.00
2018-10-11T06:56:23.148Z,75.90
2018-10-11T06:58:51.673Z,75.90
2018-10-11T07:01:20.206Z,75.90
2018-10-11T07:03:48.871Z,75.90
2018-10-11T07:06:17.388Z,75.90
2018-10-11T07:08:45.982Z,75.80
2018-10-11T07:11:15.658Z,75.80
2018-10-11T07:13:44.384Z,76.00
2018-10-11T07:16:16.059Z,75.80
2018-10-11T07:18:44.876Z,75.80
2018-10-11T07:21:13.461Z,75.60
2018-10-11T07:23:43.955Z,75.40
2018-10-11T07:26:13.088Z,75.10
2018-10-11T07:28:43.876Z,75.10
2018-10-11T07:31:12.611Z,75.10
2018-10-11T07:33:41.480Z,75.20
2018-10-11T07:36:10.433Z,75.20
2018-10-11T07:38:39.280Z,75.20
2018-10-11T07:41:07.979Z,75.30
2018-10-11T07:43:37.658Z,75.30
2018-10-11T07:46:06.643Z,75.80
2018-10-11T07:48:35.355Z,75.40
2018-10-11T07:51:04.114Z,75.50
2018-10-11T07:53:32.802Z,76.20
2018-10-11T07:56:01.544Z,75.60
2018-10-11T07:58:30.049Z,75.60
2018-10-11T08:00:58.602Z,76.40
2018-10-11T08:03:27.124Z,75.70
2018-10-11T08:05:55.647Z,75.80
2018-10-11T08:08:24.186Z,76.50
2018-10-11T08:10:52.753Z,75.60
2018-10-11T08:13:21.490Z,75.60
2018-10-11T08:15:50.118Z,75.80
2018-10-11T08:18:19.171Z,75.80
2018-10-11T08:20:49.409Z,75.60
2018-10-11T08:23:18.737Z,75.50
2018-10-11T08:25:48.192Z,75.60
2018-10-11T08:28:16.369Z,75.60
2018-10-11T08:30:45.140Z,75.50
2018-10-11T08:33:13.820Z,75.50
2018-10-11T08:35:45.695Z,75.50
2018-10-11T08:38:14.434Z,75.50
2018-10-11T08:40:44.454Z,75.50
2018-10-11T08:43:13.249Z,75.40
2018-10-11T08:45:41.785Z,75.40
2018-10-11T08:48:10.901Z,75.40
2018-10-11T08:50:39.512Z,75.50
2018-10-11T08:53:08.665Z,75.50
2018-10-11T08:55:38.071Z,75.30
2018-10-11T08:58:06.825Z,75.40
2018-10-11T09:00:36.598Z,75.30
2018-10-11T09:03:05.470Z,75.30
2018-10-11T09:05:33.983Z,75.30
2018-10-11T09:08:02.808Z,75.30
2018-10-11T09:10:38.290Z,75.20
2018-10-11T09:13:01.958Z,75.20
2018-10-11T09:15:31.761Z,75.20
2018-10-11T09:18:00.375Z,75.20
2018-10-11T09:20:29.677Z,75.10
2018-10-11T09:22:58.318Z,75.00
2018-10-11T09:25:27.258Z,75.00
2018-10-11T09:27:55.774Z,75.00
2018-10-11T09:30:25.306Z,75.10
2018-10-11T09:32:54.018Z,75.00
2018-10-11T09:35:22.681Z,75.10
2018-10-11T09:37:51.307Z,75.00
2018-10-11T09:40:20.809Z,75.10
2018-10-11T09:42:50.032Z,74.90
2018-10-11T09:45:18.668Z,74.80
2018-10-11T09:47:47.208Z,74.80
2018-10-11T09:50:18.875Z,74.90
2018-10-11T09:52:48.140Z,74.80
2018-10-11T09:55:16.689Z,74.70
2018-10-11T09:57:45.305Z,74.70
2018-10-11T10:00:19.307Z,74.70
2018-10-11T10:02:48.825Z,74.60
2018-10-11T10:05:17.385Z,74.50
2018-10-11T10:10:48.007Z,74.40
2018-10-11T10:13:17.447Z,74.30
2018-10-11T10:15:46.137Z,74.20
2018-10-11T10:18:14.661Z,74.10
2018-10-11T10:20:43.147Z,74.10
2018-10-11T10:23:11.740Z,74.10
2018-10-11T10:25:40.312Z,74.10
2018-10-11T10:28:09.176Z,73.90
2018-10-11T10:30:43.348Z,73.80
2018-10-11T10:33:13.540Z,73.60
2018-10-11T10:35:42.080Z,73.60
2018-10-11T10:38:10.682Z,73.50
2018-10-11T10:40:39.357Z,73.50
2018-10-11T10:43:07.916Z,74.10
2018-10-11T10:45:36.499Z,73.20
2018-10-11T10:48:07.319Z,73.70
2018-10-11T10:50:36.000Z,73.00
2018-10-11T10:53:04.575Z,73.00
2018-10-11T10:55:33.259Z,72.90
2018-10-11T10:58:01.859Z,72.90
2018-10-11T11:00:31.718Z,72.70
2018-10-11T11:03:00.302Z,72.60
2018-10-11T11:05:28.912Z,72.40
2018-10-11T11:07:57.608Z,72.20
2018-10-11T11:10:26.240Z,72.20
2018-10-11T11:12:57.145Z,72.00
2018-10-11T11:15:25.711Z,71.90
2018-10-11T11:17:55.296Z,71.70
2018-10-11T11:20:24.876Z,71.80
2018-10-11T11:22:53.981Z,71.70
2018-10-11T11:25:22.970Z,72.20
2018-10-11T11:27:52.841Z,71.30
2018-10-11T11:30:23.622Z,71.20
2018-10-11T11:32:53.375Z,71.00
2018-10-11T11:35:21.997Z,70.90
2018-10-11T11:37:50.529Z,70.90
2018-10-11T11:40:19.106Z,70.80
2018-10-11T11:42:48.020Z,70.80
2018-10-11T11:45:16.612Z,70.80
2018-10-11T11:47:45.153Z,70.60
2018-10-11T11:50:13.985Z,70.60
2018-10-11T11:52:42.512Z,70.70
2018-10-11T11:55:11.126Z,70.70
2018-10-11T11:57:39.688Z,70.60
2018-10-11T12:00:13.643Z,70.50
2018-10-11T12:02:42.360Z,70.40
2018-10-11T12:05:11.063Z,70.40
2018-10-11T12:07:39.675Z,70.30
2018-10-11T12:10:08.368Z,70.20
2018-10-11T12:12:56.560Z,70.10
2018-10-11T12:15:26.402Z,69.80
2018-10-11T12:17:56.774Z,69.90
2018-10-11T12:20:28.625Z,69.70
2018-10-11T12:22:58.541Z,69.60
2018-10-11T12:25:28.015Z,69.60
2018-10-11T12:27:56.879Z,69.50
2018-10-11T12:30:25.677Z,69.40
2018-10-11T12:32:54.660Z,69.30
2018-10-11T12:35:24.063Z,69.20
2018-10-11T12:37:54.895Z,69.20
2018-10-11T12:40:24.226Z,69.20
2018-10-11T12:42:52.151Z,69.00
2018-10-11T12:45:21.023Z,69.10
2018-10-11T12:47:49.833Z,69.00
2018-10-11T12:50:18.481Z,68.90
2018-10-11T12:52:48.177Z,69.10
2018-10-11T12:55:16.797Z,69.10
2018-10-11T12:57:46.911Z,69.10
2018-10-11T13:00:16.783Z,69.00
2018-10-11T13:02:46.773Z,68.90
2018-10-11T13:05:15.378Z,68.80
2018-10-11T13:07:44.035Z,68.90
2018-10-11T13:10:12.605Z,68.90
2018-10-11T13:12:43.545Z,68.80
2018-10-11T13:15:12.239Z,68.80
2018-10-11T13:17:43.386Z,68.70
2018-10-11T13:20:09.754Z,68.60
2018-10-11T13:22:39.852Z,68.40
2018-10-11T13:25:08.661Z,68.30
2018-10-11T13:27:37.647Z,68.10
2018-10-11T13:30:06.937Z,68.10
2018-10-11T13:32:35.499Z,68.20
2018-10-11T13:35:05.609Z,68.10
2018-10-11T13:37:34.223Z,68.20
2018-10-11T13:40:02.940Z,68.20
2018-10-11T13:42:31.762Z,68.20
2018-10-11T13:45:01.341Z,68.20
2018-10-11T13:47:29.906Z,68.10
2018-10-11T13:49:58.512Z,67.80
2018-10-11T13:52:27.067Z,67.80
2018-10-11T13:54:55.716Z,67.70
2018-10-11T13:57:26.847Z,67.60
2018-10-11T13:59:52.863Z,67.50
2018-10-11T14:02:21.457Z,67.50
2018-10-11T14:04:54.332Z,67.40
2018-10-11T14:07:23.158Z,67.40
2018-10-11T14:09:52.479Z,67.40
2018-10-11T14:12:21.109Z,67.40
2018-10-11T14:14:49.744Z,67.30
2018-10-11T14:17:18.214Z,67.20
2018-10-11T14:19:46.735Z,67.20
2018-10-11T14:22:15.272Z,67.00
2018-10-11T14:24:43.817Z,66.90
2018-10-11T14:27:12.397Z,66.80
2018-10-11T14:29:40.885Z,66.80
2018-10-11T14:32:09.645Z,66.90
2018-10-11T14:34:38.423Z,66.80
2018-10-11T14:37:07.288Z,66.90
2018-10-11T14:39:35.726Z,66.90
2018-10-11T14:42:06.833Z,66.90
2018-10-11T14:44:35.392Z,66.90
2018-10-11T14:47:04.159Z,66.90
2018-10-11T14:49:32.721Z,66.80
2018-10-11T14:52:02.397Z,66.80
2018-10-11T14:54:34.069Z,66.70
2018-10-11T14:57:03.740Z,66.70
2018-10-11T14:59:32.364Z,66.70
2018-10-11T15:02:01.106Z,67.50
2018-10-11T15:04:29.883Z,66.60
2018-10-11T15:06:59.914Z,66.70
2018-10-11T15:09:28.647Z,66.70
2018-10-11T15:11:57.267Z,66.60
2018-10-11T15:14:26.148Z,66.60
2018-10-11T15:16:56.095Z,66.60
2018-10-11T15:19:24.685Z,66.60
2018-10-11T15:21:53.300Z,66.60
2018-10-11T15:24:22.093Z,66.60
2018-10-11T15:26:50.717Z,66.50
2018-10-11T15:29:19.290Z,66.50
2018-10-11T15:31:47.779Z,66.60
2018-10-11T15:34:16.345Z,66.50
2018-10-11T15:36:45.170Z,66.50
2018-10-11T15:39:15.751Z,66.50
2018-10-11T15:41:44.355Z,66.40
2018-10-11T15:44:13.465Z,66.40
2018-10-11T15:46:43.627Z,66.50
2018-10-11T15:49:14.991Z,66.60
2018-10-11T15:51:44.103Z,66.60
2018-10-11T15:54:12.682Z,66.60
2018-10-11T15:56:41.255Z,66.50
2018-10-11T15:59:09.886Z,66.50
2018-10-11T16:01:38.417Z,66.40
2018-10-11T16:04:06.977Z,66.60
2018-10-11T16:06:35.508Z,66.60
2018-10-11T16:09:06.623Z,66.70
2018-10-11T16:11:36.135Z,66.80
2018-10-11T16:14:05.521Z,66.90
2018-10-11T16:16:34.781Z,67.00
2018-10-11T16:19:03.875Z,67.10
2018-10-11T16:21:32.590Z,67.20
2018-10-11T16:24:01.861Z,67.30
2018-10-11T16:26:30.522Z,67.50
2018-10-11T16:28:59.964Z,67.50
2018-10-11T16:31:29.069Z,67.60
2018-10-11T16:33:57.804Z,67.70
2018-10-11T16:36:26.699Z,67.80
2018-10-11T16:38:55.521Z,67.90
2018-10-11T16:41:25.696Z,68.00
2018-10-11T16:43:54.510Z,68.20
2018-10-11T16:46:23.152Z,68.30
2018-10-11T16:48:51.972Z,68.20
2018-10-11T16:51:20.552Z,68.10
2018-10-11T16:53:49.177Z,68.10
2018-10-11T16:56:18.029Z,68.30
2018-10-11T16:58:46.542Z,68.50
2018-10-11T17:01:15.138Z,68.60
2018-10-11T17:03:43.631Z,68.70
2018-10-11T17:06:12.293Z,68.70
2018-10-11T17:08:40.952Z,68.70
2018-10-11T17:11:11.173Z,68.70
2018-10-11T17:13:39.760Z,68.80
2018-10-11T17:16:08.290Z,68.90
2018-10-11T17:18:36.829Z,69.00
2018-10-11T17:21:05.325Z,68.90
2018-10-11T17:23:34.043Z,69.00
2018-10-11T17:26:02.654Z,69.10
2018-10-11T17:28:31.479Z,69.10
2018-10-11T17:31:00.151Z,69.10
2018-10-11T17:33:28.712Z,69.00
2018-10-11T17:35:57.429Z,68.90
2018-10-11T17:38:27.382Z,68.90
2018-10-11T17:40:55.964Z,68.90
2018-10-11T17:43:24.476Z,68.90
2018-10-11T17:45:53.062Z,68.80
2018-10-11T17:48:21.815Z,68.60
2018-10-11T17:50:50.800Z,69.10
2018-10-11T17:53:19.427Z,68.20
2018-10-11T17:55:49.042Z,68.20
2018-10-11T17:58:18.106Z,67.90
2018-10-11T18:00:47.368Z,68.00
2018-10-11T18:03:16.391Z,68.60
2018-10-11T18:05:44.920Z,67.80
2018-10-11T18:08:13.923Z,67.80
2018-10-11T18:10:42.498Z,67.80
2018-10-11T18:13:11.132Z,67.70
2018-10-11T18:15:39.753Z,67.50
2018-10-11T18:18:08.353Z,67.40
2018-10-11T18:20:37.032Z,67.30
2018-10-11T18:23:06.022Z,67.80
2018-10-11T18:25:34.612Z,67.30
2018-10-11T18:28:03.307Z,67.20
2018-10-11T18:30:31.882Z,67.20
2018-10-11T18:33:00.408Z,67.20
2018-10-11T18:35:29.158Z,67.00
2018-10-11T18:37:57.664Z,67.00
2018-10-11T18:40:26.217Z,67.10
2018-10-11T18:42:54.747Z,67.40
2018-10-11T18:45:23.419Z,66.90
2018-10-11T18:47:51.941Z,66.90
2018-10-11T18:50:20.568Z,66.90
2018-10-11T18:52:49.358Z,66.80
2018-10-11T18:55:18.069Z,66.90
2018-10-11T18:57:46.713Z,66.90
2018-10-11T19:00:15.219Z,67.00
2018-10-11T19:02:43.732Z,67.00
2018-10-11T19:05:12.269Z,67.10
2018-10-11T19:07:40.816Z,67.10
2018-10-11T19:10:09.373Z,67.30
2018-10-11T19:12:37.912Z,67.40
2018-10-11T19:15:06.473Z,67.40
2018-10-11T19:17:36.023Z,67.50
2018-10-11T19:20:04.689Z,67.30
2018-10-11T19:22:33.281Z,67.30
2018-10-11T19:25:01.890Z,67.30
2018-10-11T19:27:30.433Z,67.20
2018-10-11T19:29:58.963Z,67.10
2018-10-11T19:32:27.473Z,67.10
2018-10-11T19:34:56.064Z,67.20
2018-10-11T19:37:24.581Z,67.10
2018-10-11T19:39:53.151Z,67.10
2018-10-11T19:42:21.723Z,67.10
2018-10-11T19:44:50.262Z,67.10
2018-10-11T19:47:18.809Z,67.10
2018-10-11T19:49:47.470Z,67.00
2018-10-11T19:52:15.996Z,67.00
2018-10-11T19:54:44.515Z,67.00
2018-10-11T19:57:13.062Z,67.00
2018-10-11T19:59:41.582Z,67.00
2018-10-11T20:02:10.140Z,66.90
2018-10-11T20:04:38.614Z,67.00
2018-10-11T20:07:07.335Z,67.00
2018-10-11T20:09:35.994Z,66.90
2018-10-11T20:12:04.663Z,66.90
2018-10-11T20:14:33.221Z,66.90
2018-10-11T20:17:01.720Z,66.80
2018-10-11T20:19:30.347Z,66.80
2018-10-11T20:21:58.880Z,66.90
2018-10-11T20:24:27.433Z,67.00
2018-10-11T20:26:55.993Z,67.20
2018-10-11T20:29:24.596Z,67.20
2018-10-11T20:31:53.120Z,67.30
2018-10-11T20:34:21.622Z,67.30
2018-10-11T20:36:50.188Z,67.30
2018-10-11T20:39:18.736Z,67.40
2018-10-11T20:41:47.901Z,67.50
2018-10-11T20:44:16.473Z,67.20
2018-10-11T20:46:46.569Z,67.50
2018-10-11T20:49:15.372Z,67.50
2018-10-11T20:51:44.001Z,67.50
2018-10-11T20:57:08.638Z,67.70
2018-10-11T20:59:37.190Z,67.80
2018-10-11T21:02:06.133Z,68.00
2018-10-11T21:04:34.618Z,68.00
2018-10-11T21:07:03.208Z,67.80
2018-10-11T21:09:39.596Z,67.70
2018-10-11T21:12:08.150Z,67.60
2018-10-11T21:14:36.686Z,67.70
2018-10-11T21:17:05.745Z,67.70
2018-10-11T21:19:34.433Z,67.60
2018-10-11T21:22:03.829Z,67.90
2018-10-11T21:24:32.478Z,67.80
2018-10-11T21:27:01.033Z,67.80
2018-10-11T21:29:30.343Z,67.70
2018-10-11T21:31:58.943Z,67.60
2018-10-11T21:34:27.496Z,67.90
2018-10-11T21:36:56.184Z,67.80
2018-10-11T21:39:24.694Z,67.90
2018-10-11T21:41:53.231Z,67.70
2018-10-11T21:44:21.744Z,67.70
2018-10-11T21:46:50.352Z,67.70
2018-10-11T21:49:18.846Z,67.70
2018-10-11T21:51:47.380Z,67.70
2018-10-11T21:54:15.948Z,67.60
2018-10-11T21:56:44.486Z,67.50
2018-10-11T21:59:13.003Z,67.50
2018-10-11T22:01:41.551Z,67.50
2018-10-11T22:04:10.072Z,67.70
2018-10-11T22:06:38.592Z,67.50
2018-10-11T22:09:07.614Z,67.50
2018-10-11T22:11:36.178Z,67.60
2018-10-11T22:14:04.692Z,67.60
2018-10-11T22:16:33.232Z,67.70
2018-10-11T22:19:01.713Z,67.80
2018-10-11T22:21:30.360Z,67.70
2018-10-11T22:23:58.957Z,67.80
2018-10-11T22:26:27.551Z,67.80
2018-10-11T22:28:56.123Z,67.70
2018-10-11T22:31:24.654Z,67.70
2018-10-11T22:33:53.274Z,67.80
2018-10-11T22:36:21.799Z,67.90
2018-10-11T22:38:50.369Z,67.80
2018-10-11T22:41:19.041Z,67.90
2018-10-11T22:43:47.750Z,67.80
2018-10-11T22:46:16.366Z,67.90
2018-10-11T22:48:44.924Z,67.90
2018-10-11T22:51:13.498Z,68.00
2018-10-11T22:53:42.593Z,68.00
2018-10-11T22:56:11.298Z,68.10
2018-10-11T22:58:39.908Z,68.20
2018-10-11T23:01:08.640Z,68.30
2018-10-11T23:03:37.445Z,68.30
2018-10-11T23:06:06.384Z,68.30
2018-10-11T23:08:35.229Z,68.30
2018-10-11T23:11:03.740Z,68.20
2018-10-11T23:13:32.291Z,68.30
2018-10-11T23:16:00.887Z,68.30
2018-10-11T23:18:29.420Z,68.50
2018-10-11T23:20:58.003Z,68.60
2018-10-11T23:23:26.671Z,68.60
2018-10-11T23:25:55.211Z,68.70
2018-10-11T23:28:23.959Z,68.70
2018-10-11T23:30:53.989Z,68.60
2018-10-11T23:33:23.920Z,68.80
2018-10-11T23:35:52.695Z,68.90
2018-10-11T23:38:21.424Z,69.20
2018-10-11T23:40:50.055Z,69.20
2018-10-11T23:43:18.566Z,69.10
2018-10-11T23:45:47.189Z,69.10
2018-10-11T23:48:15.770Z,68.90
2018-10-11T23:50:44.292Z,68.90
2018-10-11T23:53:12.936Z,69.00
2018-10-11T23:55:41.515Z,69.00
2018-10-11T23:58:10.070Z,69.10
